sensor_id;sensor_type;location;lat;lon;timestamp;P1;durP1;ratioP1;P2;durP2;ratioP2
62790;SDS011;48830;53.426;10.300;2022-09-21T00:01:52;7.32;;;3.42;;
62790;SDS011;48830;53.426;10.300;2022-09-21T00:04:18;8.63;;;3.75;;
62790;SDS011;48830;53.426;10.300;2022-09-21T00:06:43;7.25;;;3.50;;
62790;SDS011;48830;53.426;10.300;2022-09-21T00:09:09;6.78;;;3.30;;
62790;SDS011;48830;53.426;10.300;2022-09-21T00:11:35;6.78;;;3.70;;
62790;SDS011;48830;53.426;10.300;2022-09-21T00:14:02;7.15;;;3.58;;
62790;SDS011;48830;53.426;10.300;2022-09-21T00:16:32;8.65;;;3.17;;
62790;SDS011;48830;53.426;10.300;2022-09-21T00:18:58;8.93;;;4.10;;
62790;SDS011;48830;53.426;10.300;2022-09-21T00:21:24;14.43;;;3.80;;
62790;SDS011;48830;53.426;10.300;2022-09-21T00:23:51;10.20;;;4.57;;
62790;SDS011;48830;53.426;10.300;2022-09-21T00:26:22;8.60;;;4.03;;
62790;SDS011;48830;53.426;10.300;2022-09-21T00:28:51;8.95;;;3.60;;
62790;SDS011;48830;53.426;10.300;2022-09-21T00:31:18;7.80;;;3.50;;
62790;SDS011;48830;53.426;10.300;2022-09-21T00:33:44;7.77;;;3.70;;
62790;SDS011;48830;53.426;10.300;2022-09-21T00:36:11;6.45;;;2.75;;
62790;SDS011;48830;53.426;10.300;2022-09-21T00:38:38;9.23;;;3.75;;
62790;SDS011;48830;53.426;10.300;2022-09-21T00:41:05;6.70;;;3.38;;
62790;SDS011;48830;53.426;10.300;2022-09-21T00:43:33;8.93;;;3.55;;
62790;SDS011;48830;53.426;10.300;2022-09-21T00:46:02;7.25;;;3.30;;
62790;SDS011;48830;53.426;10.300;2022-09-21T00:48:30;6.93;;;3.25;;
62790;SDS011;48830;53.426;10.300;2022-09-21T00:50:58;6.50;;;3.20;;
62790;SDS011;48830;53.426;10.300;2022-09-21T00:53:28;7.83;;;3.33;;
62790;SDS011;48830;53.426;10.300;2022-09-21T00:55:54;6.10;;;3.10;;
62790;SDS011;48830;53.426;10.300;2022-09-21T00:58:27;8.70;;;3.33;;
62790;SDS011;48830;53.426;10.300;2022-09-21T01:00:58;4.70;;;3.00;;
62790;SDS011;48830;53.426;10.300;2022-09-21T01:03:25;5.17;;;2.83;;
62790;SDS011;48830;53.426;10.300;2022-09-21T01:05:51;6.43;;;2.93;;
62790;SDS011;48830;53.426;10.300;2022-09-21T01:08:16;6.37;;;3.03;;
62790;SDS011;48830;53.426;10.300;2022-09-21T01:16:28;6.43;;;3.00;;
62790;SDS011;48830;53.426;10.300;2022-09-21T01:19:13;6.67;;;2.70;;
62790;SDS011;48830;53.426;10.300;2022-09-21T01:27:53;4.77;;;2.93;;
62790;SDS011;48830;53.426;10.300;2022-09-21T01:30:53;7.60;;;3.30;;
62790;SDS011;48830;53.426;10.300;2022-09-21T01:33:28;6.72;;;3.10;;
62790;SDS011;48830;53.426;10.300;2022-09-21T01:36:00;5.95;;;3.10;;
62790;SDS011;48830;53.426;10.300;2022-09-21T01:38:34;6.07;;;2.77;;
62790;SDS011;48830;53.426;10.300;2022-09-21T01:41:17;6.20;;;3.13;;
62790;SDS011;48830;53.426;10.300;2022-09-21T01:43:48;5.40;;;3.05;;
62790;SDS011;48830;53.426;10.300;2022-09-21T01:46:19;7.55;;;2.80;;
62790;SDS011;48830;53.426;10.300;2022-09-21T01:48:55;6.55;;;2.97;;
62790;SDS011;48830;53.426;10.300;2022-09-21T01:51:24;7.13;;;2.80;;
62790;SDS011;48830;53.426;10.300;2022-09-21T01:53:56;5.30;;;2.93;;
62790;SDS011;48830;53.426;10.300;2022-09-21T01:56:29;6.70;;;2.90;;
62790;SDS011;48830;53.426;10.300;2022-09-21T01:59:02;6.10;;;3.00;;
62790;SDS011;48830;53.426;10.300;2022-09-21T02:01:37;6.53;;;3.03;;
62790;SDS011;48830;53.426;10.300;2022-09-21T02:04:10;7.03;;;2.77;;
62790;SDS011;48830;53.426;10.300;2022-09-21T02:06:39;6.93;;;2.97;;
62790;SDS011;48830;53.426;10.300;2022-09-21T02:09:07;8.37;;;2.70;;
62790;SDS011;48830;53.426;10.300;2022-09-21T02:11:34;6.67;;;3.47;;
62790;SDS011;48830;53.426;10.300;2022-09-21T02:14:03;16.20;;;4.83;;
62790;SDS011;48830;53.426;10.300;2022-09-21T02:19:09;10.70;;;3.53;;
62790;SDS011;48830;53.426;10.300;2022-09-21T02:25:03;12.40;;;3.80;;
62790;SDS011;48830;53.426;10.300;2022-09-21T02:27:49;11.52;;;4.55;;
62790;SDS011;48830;53.426;10.300;2022-09-21T02:30:23;7.03;;;4.00;;
62790;SDS011;48830;53.426;10.300;2022-09-21T02:33:03;10.30;;;4.13;;
62790;SDS011;48830;53.426;10.300;2022-09-21T02:35:36;8.57;;;4.00;;
62790;SDS011;48830;53.426;10.300;2022-09-21T02:43:29;9.00;;;3.93;;
62790;SDS011;48830;53.426;10.300;2022-09-21T02:46:02;15.47;;;5.50;;
62790;SDS011;48830;53.426;10.300;2022-09-21T02:48:37;11.63;;;4.50;;
62790;SDS011;48830;53.426;10.300;2022-09-21T02:51:13;13.00;;;5.43;;
62790;SDS011;48830;53.426;10.300;2022-09-21T02:53:46;11.37;;;5.47;;
62790;SDS011;48830;53.426;10.300;2022-09-21T02:56:14;9.43;;;5.53;;
62790;SDS011;48830;53.426;10.300;2022-09-21T02:58:44;9.33;;;5.10;;
62790;SDS011;48830;53.426;10.300;2022-09-21T03:01:13;11.23;;;4.73;;
62790;SDS011;48830;53.426;10.300;2022-09-21T03:03:40;9.27;;;4.63;;
62790;SDS011;48830;53.426;10.300;2022-09-21T03:06:06;12.10;;;4.60;;
62790;SDS011;48830;53.426;10.300;2022-09-21T03:08:31;9.57;;;4.20;;
62790;SDS011;48830;53.426;10.300;2022-09-21T03:10:57;11.53;;;4.60;;
62790;SDS011;48830;53.426;10.300;2022-09-21T03:13:22;10.53;;;4.80;;
62790;SDS011;48830;53.426;10.300;2022-09-21T03:15:48;11.73;;;4.77;;
62790;SDS011;48830;53.426;10.300;2022-09-21T03:18:14;13.07;;;5.47;;
62790;SDS011;48830;53.426;10.300;2022-09-21T03:20:43;12.73;;;5.60;;
62790;SDS011;48830;53.426;10.300;2022-09-21T03:23:10;17.00;;;5.43;;
62790;SDS011;48830;53.426;10.300;2022-09-21T03:25:36;13.23;;;4.97;;
62790;SDS011;48830;53.426;10.300;2022-09-21T03:28:03;27.17;;;5.87;;
62790;SDS011;48830;53.426;10.300;2022-09-21T03:30:28;24.27;;;5.57;;
62790;SDS011;48830;53.426;10.300;2022-09-21T03:32:56;13.60;;;5.23;;
62790;SDS011;48830;53.426;10.300;2022-09-21T03:35:22;10.40;;;5.00;;
62790;SDS011;48830;53.426;10.300;2022-09-21T03:37:49;16.30;;;4.93;;
62790;SDS011;48830;53.426;10.300;2022-09-21T03:40:15;35.53;;;6.27;;
62790;SDS011;48830;53.426;10.300;2022-09-21T03:42:41;36.87;;;6.20;;
62790;SDS011;48830;53.426;10.300;2022-09-21T03:45:08;37.03;;;7.37;;
62790;SDS011;48830;53.426;10.300;2022-09-21T03:47:35;18.17;;;5.70;;
62790;SDS011;48830;53.426;10.300;2022-09-21T03:50:01;16.30;;;5.17;;
62790;SDS011;48830;53.426;10.300;2022-09-21T03:52:27;15.67;;;4.70;;
62790;SDS011;48830;53.426;10.300;2022-09-21T03:54:52;8.50;;;4.67;;
62790;SDS011;48830;53.426;10.300;2022-09-21T03:57:19;12.13;;;4.80;;
62790;SDS011;48830;53.426;10.300;2022-09-21T03:59:45;17.40;;;5.13;;
62790;SDS011;48830;53.426;10.300;2022-09-21T04:02:10;8.50;;;4.20;;
62790;SDS011;48830;53.426;10.300;2022-09-21T04:04:36;7.60;;;4.27;;
62790;SDS011;48830;53.426;10.300;2022-09-21T04:07:01;7.37;;;4.50;;
62790;SDS011;48830;53.426;10.300;2022-09-21T04:09:27;9.93;;;4.50;;
62790;SDS011;48830;53.426;10.300;2022-09-21T04:11:52;8.40;;;4.53;;
62790;SDS011;48830;53.426;10.300;2022-09-21T04:14:18;7.27;;;4.20;;
62790;SDS011;48830;53.426;10.300;2022-09-21T04:16:44;8.60;;;4.33;;
62790;SDS011;48830;53.426;10.300;2022-09-21T04:19:10;8.80;;;4.57;;
62790;SDS011;48830;53.426;10.300;2022-09-21T04:21:35;10.83;;;4.47;;
62790;SDS011;48830;53.426;10.300;2022-09-21T04:24:01;9.80;;;4.20;;
62790;SDS011;48830;53.426;10.300;2022-09-21T04:26:29;13.17;;;4.63;;
62790;SDS011;48830;53.426;10.300;2022-09-21T04:28:56;12.47;;;4.70;;
62790;SDS011;48830;53.426;10.300;2022-09-21T04:31:22;12.20;;;4.77;;
62790;SDS011;48830;53.426;10.300;2022-09-21T04:33:49;12.40;;;5.17;;
62790;SDS011;48830;53.426;10.300;2022-09-21T04:36:16;14.83;;;5.57;;
62790;SDS011;48830;53.426;10.300;2022-09-21T04:38:43;14.70;;;4.80;;
62790;SDS011;48830;53.426;10.300;2022-09-21T04:41:09;7.33;;;3.87;;
62790;SDS011;48830;53.426;10.300;2022-09-21T04:43:34;11.17;;;4.00;;
62790;SDS011;48830;53.426;10.300;2022-09-21T04:46:11;9.80;;;4.40;;
62790;SDS011;48830;53.426;10.300;2022-09-21T04:48:38;9.00;;;4.50;;
62790;SDS011;48830;53.426;10.300;2022-09-21T04:51:05;10.77;;;4.40;;
62790;SDS011;48830;53.426;10.300;2022-09-21T04:53:34;8.10;;;4.40;;
62790;SDS011;48830;53.426;10.300;2022-09-21T04:56:01;7.93;;;4.20;;
62790;SDS011;48830;53.426;10.300;2022-09-21T04:58:28;8.53;;;3.90;;
62790;SDS011;48830;53.426;10.300;2022-09-21T05:00:53;9.87;;;4.10;;
62790;SDS011;48830;53.426;10.300;2022-09-21T05:03:20;7.67;;;3.83;;
62790;SDS011;48830;53.426;10.300;2022-09-21T05:05:50;8.77;;;3.80;;
62790;SDS011;48830;53.426;10.300;2022-09-21T05:08:17;11.95;;;4.18;;
62790;SDS011;48830;53.426;10.300;2022-09-21T05:11:02;8.67;;;4.23;;
62790;SDS011;48830;53.426;10.300;2022-09-21T05:13:27;8.80;;;5.13;;
62790;SDS011;48830;53.426;10.300;2022-09-21T05:15:53;12.90;;;4.23;;
62790;SDS011;48830;53.426;10.300;2022-09-21T05:18:18;23.53;;;4.73;;
62790;SDS011;48830;53.426;10.300;2022-09-21T05:20:44;11.63;;;4.33;;
62790;SDS011;48830;53.426;10.300;2022-09-21T05:23:09;11.73;;;4.80;;
62790;SDS011;48830;53.426;10.300;2022-09-21T05:25:34;13.00;;;4.67;;
62790;SDS011;48830;53.426;10.300;2022-09-21T05:28:00;25.97;;;5.53;;
62790;SDS011;48830;53.426;10.300;2022-09-21T05:30:26;12.20;;;4.57;;
62790;SDS011;48830;53.426;10.300;2022-09-21T05:32:55;7.90;;;5.47;;
62790;SDS011;48830;53.426;10.300;2022-09-21T05:35:33;17.23;;;7.20;;
62790;SDS011;48830;53.426;10.300;2022-09-21T05:40:48;18.57;;;5.43;;
62790;SDS011;48830;53.426;10.300;2022-09-21T05:43:14;104.47;;;9.10;;
62790;SDS011;48830;53.426;10.300;2022-09-21T05:45:49;24.53;;;5.23;;
62790;SDS011;48830;53.426;10.300;2022-09-21T05:48:25;51.83;;;6.17;;
62790;SDS011;48830;53.426;10.300;2022-09-21T05:54:05;123.47;;;9.77;;
62790;SDS011;48830;53.426;10.300;2022-09-21T06:02:43;73.17;;;7.03;;
62790;SDS011;48830;53.426;10.300;2022-09-21T06:05:18;22.50;;;4.50;;
62790;SDS011;48830;53.426;10.300;2022-09-21T06:07:44;9.97;;;4.10;;
62790;SDS011;48830;53.426;10.300;2022-09-21T06:10:11;12.83;;;4.07;;
62790;SDS011;48830;53.426;10.300;2022-09-21T06:12:37;7.17;;;3.40;;
62790;SDS011;48830;53.426;10.300;2022-09-21T06:15:04;14.37;;;3.50;;
62790;SDS011;48830;53.426;10.300;2022-09-21T06:17:31;17.25;;;4.00;;
62790;SDS011;48830;53.426;10.300;2022-09-21T06:19:57;15.80;;;4.23;;
62790;SDS011;48830;53.426;10.300;2022-09-21T06:22:22;16.03;;;4.50;;
62790;SDS011;48830;53.426;10.300;2022-09-21T06:24:48;34.23;;;5.10;;
62790;SDS011;48830;53.426;10.300;2022-09-21T06:27:13;43.93;;;5.37;;
62790;SDS011;48830;53.426;10.300;2022-09-21T06:29:39;15.57;;;4.70;;
62790;SDS011;48830;53.426;10.300;2022-09-21T06:32:04;24.87;;;4.70;;
62790;SDS011;48830;53.426;10.300;2022-09-21T06:34:30;28.03;;;5.43;;
62790;SDS011;48830;53.426;10.300;2022-09-21T06:36:55;15.50;;;4.53;;
62790;SDS011;48830;53.426;10.300;2022-09-21T06:39:21;20.90;;;4.75;;
62790;SDS011;48830;53.426;10.300;2022-09-21T06:41:47;43.08;;;6.00;;
62790;SDS011;48830;53.426;10.300;2022-09-21T06:44:14;37.83;;;5.90;;
62790;SDS011;48830;53.426;10.300;2022-09-21T06:46:39;57.05;;;7.15;;
62790;SDS011;48830;53.426;10.300;2022-09-21T06:49:05;22.80;;;4.88;;
62790;SDS011;48830;53.426;10.300;2022-09-21T06:51:30;43.05;;;6.53;;
62790;SDS011;48830;53.426;10.300;2022-09-21T06:53:56;9.05;;;4.45;;
62790;SDS011;48830;53.426;10.300;2022-09-21T06:56:22;9.45;;;4.53;;
62790;SDS011;48830;53.426;10.300;2022-09-21T06:58:49;7.70;;;4.50;;
62790;SDS011;48830;53.426;10.300;2022-09-21T07:01:14;21.17;;;5.03;;
62790;SDS011;48830;53.426;10.300;2022-09-21T07:03:40;10.35;;;4.38;;
62790;SDS011;48830;53.426;10.300;2022-09-21T07:06:07;19.90;;;5.13;;
62790;SDS011;48830;53.426;10.300;2022-09-21T07:08:36;13.00;;;4.80;;
62790;SDS011;48830;53.426;10.300;2022-09-21T07:11:02;8.80;;;4.53;;
62790;SDS011;48830;53.426;10.300;2022-09-21T07:13:28;11.70;;;5.03;;
62790;SDS011;48830;53.426;10.300;2022-09-21T07:15:54;9.50;;;4.43;;
62790;SDS011;48830;53.426;10.300;2022-09-21T07:18:19;16.38;;;4.63;;
62790;SDS011;48830;53.426;10.300;2022-09-21T07:20:45;9.25;;;4.82;;
62790;SDS011;48830;53.426;10.300;2022-09-21T07:23:14;10.73;;;4.80;;
62790;SDS011;48830;53.426;10.300;2022-09-21T07:25:42;7.82;;;4.80;;
62790;SDS011;48830;53.426;10.300;2022-09-21T07:28:08;14.27;;;5.80;;
62790;SDS011;48830;53.426;10.300;2022-09-21T07:30:35;12.55;;;5.97;;
62790;SDS011;48830;53.426;10.300;2022-09-21T07:33:02;12.02;;;6.93;;
62790;SDS011;48830;53.426;10.300;2022-09-21T07:35:28;18.80;;;8.20;;
62790;SDS011;48830;53.426;10.300;2022-09-21T07:37:56;10.18;;;7.10;;
62790;SDS011;48830;53.426;10.300;2022-09-21T07:40:22;11.52;;;7.35;;
62790;SDS011;48830;53.426;10.300;2022-09-21T07:42:48;13.32;;;7.72;;
62790;SDS011;48830;53.426;10.300;2022-09-21T07:45:13;13.48;;;8.45;;
62790;SDS011;48830;53.426;10.300;2022-09-21T07:47:39;14.10;;;9.23;;
62790;SDS011;48830;53.426;10.300;2022-09-21T07:50:04;17.65;;;10.10;;
62790;SDS011;48830;53.426;10.300;2022-09-21T07:52:30;13.82;;;9.10;;
62790;SDS011;48830;53.426;10.300;2022-09-21T07:54:56;15.70;;;9.05;;
62790;SDS011;48830;53.426;10.300;2022-09-21T07:57:21;15.32;;;8.95;;
62790;SDS011;48830;53.426;10.300;2022-09-21T08:00:05;14.45;;;8.52;;
62790;SDS011;48830;53.426;10.300;2022-09-21T08:02:36;14.65;;;9.60;;
62790;SDS011;48830;53.426;10.300;2022-09-21T08:05:02;12.48;;;8.82;;
62790;SDS011;48830;53.426;10.300;2022-09-21T08:07:27;12.77;;;8.68;;
62790;SDS011;48830;53.426;10.300;2022-09-21T08:09:53;13.02;;;8.30;;
62790;SDS011;48830;53.426;10.300;2022-09-21T08:12:19;11.63;;;7.50;;
62790;SDS011;48830;53.426;10.300;2022-09-21T08:14:45;11.70;;;7.20;;
62790;SDS011;48830;53.426;10.300;2022-09-21T08:17:11;11.27;;;7.90;;
62790;SDS011;48830;53.426;10.300;2022-09-21T08:19:37;13.82;;;7.22;;
62790;SDS011;48830;53.426;10.300;2022-09-21T08:22:02;11.32;;;7.85;;
62790;SDS011;48830;53.426;10.300;2022-09-21T08:24:28;12.93;;;7.80;;
62790;SDS011;48830;53.426;10.300;2022-09-21T08:26:55;15.93;;;7.50;;
62790;SDS011;48830;53.426;10.300;2022-09-21T08:29:20;11.88;;;6.72;;
62790;SDS011;48830;53.426;10.300;2022-09-21T08:31:46;10.85;;;7.18;;
62790;SDS011;48830;53.426;10.300;2022-09-21T08:34:11;14.60;;;7.53;;
62790;SDS011;48830;53.426;10.300;2022-09-21T08:36:37;11.73;;;6.72;;
62790;SDS011;48830;53.426;10.300;2022-09-21T08:39:05;10.70;;;6.25;;
62790;SDS011;48830;53.426;10.300;2022-09-21T08:41:41;9.65;;;7.32;;
62790;SDS011;48830;53.426;10.300;2022-09-21T08:49:59;8.32;;;5.20;;
62790;SDS011;48830;53.426;10.300;2022-09-21T08:52:27;9.13;;;5.68;;
62790;SDS011;48830;53.426;10.300;2022-09-21T08:57:18;6.25;;;3.80;;
62790;SDS011;48830;53.426;10.300;2022-09-21T08:59:46;6.45;;;3.75;;
62790;SDS011;48830;53.426;10.300;2022-09-21T09:21:08;6.95;;;2.22;;
62790;SDS011;48830;53.426;10.300;2022-09-21T09:23:45;6.30;;;2.10;;
62790;SDS011;48830;53.426;10.300;2022-09-21T09:26:22;5.95;;;2.20;;
62790;SDS011;48830;53.426;10.300;2022-09-21T09:28:59;2.05;;;1.40;;
62790;SDS011;48830;53.426;10.300;2022-09-21T09:31:38;4.45;;;2.10;;
62790;SDS011;48830;53.426;10.300;2022-09-21T09:36:52;4.30;;;1.60;;
62790;SDS011;48830;53.426;10.300;2022-09-21T09:39:21;3.08;;;1.00;;
62790;SDS011;48830;53.426;10.300;2022-09-21T09:50:09;1.08;;;0.63;;
62790;SDS011;48830;53.426;10.300;2022-09-21T09:52:37;2.58;;;1.50;;
62790;SDS011;48830;53.426;10.300;2022-09-21T09:55:22;4.68;;;1.70;;
62790;SDS011;48830;53.426;10.300;2022-09-21T09:57:54;2.33;;;1.20;;
62790;SDS011;48830;53.426;10.300;2022-09-21T10:00:20;2.65;;;1.20;;
62790;SDS011;48830;53.426;10.300;2022-09-21T10:02:54;3.67;;;1.50;;
62790;SDS011;48830;53.426;10.300;2022-09-21T10:07:46;3.10;;;1.40;;
62790;SDS011;48830;53.426;10.300;2022-09-21T10:12:46;2.25;;;1.30;;
62790;SDS011;48830;53.426;10.300;2022-09-21T10:15:12;3.67;;;1.33;;
62790;SDS011;48830;53.426;10.300;2022-09-21T10:17:37;2.35;;;1.30;;
62790;SDS011;48830;53.426;10.300;2022-09-21T10:20:04;2.80;;;1.10;;
62790;SDS011;48830;53.426;10.300;2022-09-21T10:22:32;3.13;;;1.33;;
62790;SDS011;48830;53.426;10.300;2022-09-21T10:24:58;3.47;;;1.23;;
62790;SDS011;48830;53.426;10.300;2022-09-21T10:27:31;3.15;;;1.35;;
62790;SDS011;48830;53.426;10.300;2022-09-21T10:29:59;3.33;;;1.30;;
62790;SDS011;48830;53.426;10.300;2022-09-21T10:32:28;2.65;;;1.40;;
62790;SDS011;48830;53.426;10.300;2022-09-21T10:37:46;3.10;;;1.30;;
62790;SDS011;48830;53.426;10.300;2022-09-21T10:42:43;2.97;;;1.23;;
62790;SDS011;48830;53.426;10.300;2022-09-21T10:45:19;4.03;;;1.40;;
62790;SDS011;48830;53.426;10.300;2022-09-21T10:47:47;3.47;;;1.27;;
62790;SDS011;48830;53.426;10.300;2022-09-21T10:55:57;2.65;;;1.40;;
62790;SDS011;48830;53.426;10.300;2022-09-21T10:58:26;4.07;;;1.45;;
62790;SDS011;48830;53.426;10.300;2022-09-21T11:00:52;3.45;;;1.45;;
62790;SDS011;48830;53.426;10.300;2022-09-21T11:06:04;3.08;;;1.48;;
62790;SDS011;48830;53.426;10.300;2022-09-21T11:08:49;2.95;;;1.50;;
62790;SDS011;48830;53.426;10.300;2022-09-21T11:13:56;2.72;;;1.40;;
62790;SDS011;48830;53.426;10.300;2022-09-21T11:16:36;2.72;;;1.30;;
62790;SDS011;48830;53.426;10.300;2022-09-21T11:19:24;1.73;;;1.10;;
62790;SDS011;48830;53.426;10.300;2022-09-21T11:22:11;2.88;;;1.30;;
62790;SDS011;48830;53.426;10.300;2022-09-21T11:24:48;3.08;;;1.50;;
62790;SDS011;48830;53.426;10.300;2022-09-21T11:27:32;2.70;;;1.40;;
62790;SDS011;48830;53.426;10.300;2022-09-21T11:30:03;2.38;;;1.55;;
62790;SDS011;48830;53.426;10.300;2022-09-21T11:32:41;3.72;;;1.40;;
62790;SDS011;48830;53.426;10.300;2022-09-21T11:38:33;2.33;;;1.30;;
62790;SDS011;48830;53.426;10.300;2022-09-21T11:51:32;2.58;;;1.27;;
62790;SDS011;48830;53.426;10.300;2022-09-21T11:56:51;3.20;;;1.30;;
62790;SDS011;48830;53.426;10.300;2022-09-21T12:15:58;2.55;;;1.58;;
62790;SDS011;48830;53.426;10.300;2022-09-21T12:18:47;2.58;;;1.27;;
62790;SDS011;48830;53.426;10.300;2022-09-21T12:21:25;2.75;;;1.20;;
62790;SDS011;48830;53.426;10.300;2022-09-21T12:24:04;2.67;;;1.27;;
62790;SDS011;48830;53.426;10.300;2022-09-21T12:26:39;2.63;;;1.58;;
62790;SDS011;48830;53.426;10.300;2022-09-21T12:29:14;2.90;;;1.45;;
62790;SDS011;48830;53.426;10.300;2022-09-21T12:32:01;2.70;;;1.30;;
62790;SDS011;48830;53.426;10.300;2022-09-21T12:35:11;3.63;;;1.20;;
62790;SDS011;48830;53.426;10.300;2022-09-21T12:37:50;3.55;;;1.20;;
62790;SDS011;48830;53.426;10.300;2022-09-21T12:40:39;3.42;;;1.55;;
62790;SDS011;48830;53.426;10.300;2022-09-21T12:46:10;3.42;;;1.45;;
62790;SDS011;48830;53.426;10.300;2022-09-21T12:48:38;3.58;;;1.30;;
62790;SDS011;48830;53.426;10.300;2022-09-21T12:53:36;3.28;;;1.45;;
62790;SDS011;48830;53.426;10.300;2022-09-21T12:58:44;6.13;;;2.05;;
62790;SDS011;48830;53.426;10.300;2022-09-21T13:01:19;2.80;;;1.33;;
62790;SDS011;48830;53.426;10.300;2022-09-21T13:06:47;4.60;;;1.60;;
62790;SDS011;48830;53.426;10.300;2022-09-21T13:09:16;2.63;;;1.40;;
62790;SDS011;48830;53.426;10.300;2022-09-21T13:11:59;6.55;;;1.90;;
62790;SDS011;48830;53.426;10.300;2022-09-21T13:14:32;3.20;;;1.55;;
62790;SDS011;48830;53.426;10.300;2022-09-21T13:17:01;2.90;;;1.52;;
62790;SDS011;48830;53.426;10.300;2022-09-21T13:19:30;2.55;;;1.45;;
62790;SDS011;48830;53.426;10.300;2022-09-21T13:30:29;4.07;;;1.30;;
62790;SDS011;48830;53.426;10.300;2022-09-21T13:32:58;3.05;;;1.60;;
62790;SDS011;48830;53.426;10.300;2022-09-21T13:38:27;2.90;;;1.50;;
62790;SDS011;48830;53.426;10.300;2022-09-21T13:41:40;2.40;;;1.50;;
62790;SDS011;48830;53.426;10.300;2022-09-21T13:43:46;3.00;;;1.40;;
62790;SDS011;48830;53.426;10.300;2022-09-21T13:51:33;1.85;;;1.30;;
62790;SDS011;48830;53.426;10.300;2022-09-21T13:53:59;3.30;;;1.30;;
62790;SDS011;48830;53.426;10.300;2022-09-21T13:56:27;2.58;;;1.70;;
62790;SDS011;48830;53.426;10.300;2022-09-21T13:58:54;3.05;;;1.73;;
62790;SDS011;48830;53.426;10.300;2022-09-21T14:01:31;3.75;;;2.00;;
62790;SDS011;48830;53.426;10.300;2022-09-21T14:03:59;1.38;;;1.20;;
62790;SDS011;48830;53.426;10.300;2022-09-21T14:06:34;2.05;;;1.00;;
62790;SDS011;48830;53.426;10.300;2022-09-21T14:09:07;0.95;;;0.95;;
62790;SDS011;48830;53.426;10.300;2022-09-21T14:12:05;2.78;;;1.15;;
62790;SDS011;48830;53.426;10.300;2022-09-21T14:14:43;1.23;;;0.80;;
62790;SDS011;48830;53.426;10.300;2022-09-21T14:17:40;1.63;;;1.02;;
62790;SDS011;48830;53.426;10.300;2022-09-21T14:20:24;3.95;;;1.35;;
62790;SDS011;48830;53.426;10.300;2022-09-21T14:23:10;2.83;;;1.40;;
62790;SDS011;48830;53.426;10.300;2022-09-21T14:25:55;2.65;;;1.42;;
62790;SDS011;48830;53.426;10.300;2022-09-21T14:28:28;2.75;;;1.48;;
62790;SDS011;48830;53.426;10.300;2022-09-21T14:31:00;2.90;;;1.70;;
62790;SDS011;48830;53.426;10.300;2022-09-21T14:33:47;3.28;;;1.25;;
62790;SDS011;48830;53.426;10.300;2022-09-21T14:36:18;2.33;;;1.02;;
62790;SDS011;48830;53.426;10.300;2022-09-21T14:39:02;1.90;;;1.15;;
62790;SDS011;48830;53.426;10.300;2022-09-21T14:41:36;2.40;;;1.10;;
62790;SDS011;48830;53.426;10.300;2022-09-21T14:44:04;1.40;;;1.00;;
62790;SDS011;48830;53.426;10.300;2022-09-21T14:52:12;2.05;;;1.15;;
62790;SDS011;48830;53.426;10.300;2022-09-21T15:11:52;3.42;;;1.20;;
62790;SDS011;48830;53.426;10.300;2022-09-21T15:17:23;4.57;;;1.73;;
62790;SDS011;48830;53.426;10.300;2022-09-21T15:19:50;4.13;;;1.60;;
62790;SDS011;48830;53.426;10.300;2022-09-21T15:22:17;2.58;;;1.48;;
62790;SDS011;48830;53.426;10.300;2022-09-21T15:24:48;4.07;;;1.40;;
62790;SDS011;48830;53.426;10.300;2022-09-21T15:27:30;6.63;;;1.40;;
62790;SDS011;48830;53.426;10.300;2022-09-21T15:30:02;4.47;;;1.40;;
62790;SDS011;48830;53.426;10.300;2022-09-21T15:32:39;1.70;;;1.10;;
62790;SDS011;48830;53.426;10.300;2022-09-21T15:35:17;2.83;;;1.40;;
62790;SDS011;48830;53.426;10.300;2022-09-21T15:37:44;2.42;;;1.50;;
62790;SDS011;48830;53.426;10.300;2022-09-21T15:40:29;3.13;;;1.10;;
62790;SDS011;48830;53.426;10.300;2022-09-21T15:48:16;2.47;;;1.02;;
62790;SDS011;48830;53.426;10.300;2022-09-21T15:50:44;2.13;;;1.30;;
62790;SDS011;48830;53.426;10.300;2022-09-21T15:53:32;2.08;;;1.20;;
62790;SDS011;48830;53.426;10.300;2022-09-21T15:56:03;1.48;;;1.15;;
62790;SDS011;48830;53.426;10.300;2022-09-21T16:01:13;1.88;;;1.30;;
62790;SDS011;48830;53.426;10.300;2022-09-21T16:03:41;2.58;;;1.40;;
62790;SDS011;48830;53.426;10.300;2022-09-21T16:11:48;9.50;;;7.13;;
62790;SDS011;48830;53.426;10.300;2022-09-21T16:14:16;5.30;;;2.95;;
62790;SDS011;48830;53.426;10.300;2022-09-21T16:17:05;2.47;;;1.63;;
62790;SDS011;48830;53.426;10.300;2022-09-21T16:22:14;2.20;;;1.35;;
62790;SDS011;48830;53.426;10.300;2022-09-21T16:25:01;4.22;;;2.03;;
62790;SDS011;48830;53.426;10.300;2022-09-21T16:27:30;12.50;;;6.25;;
62790;SDS011;48830;53.426;10.300;2022-09-21T16:29:56;18.85;;;7.70;;
62790;SDS011;48830;53.426;10.300;2022-09-21T16:34:51;9.30;;;4.38;;
62790;SDS011;48830;53.426;10.300;2022-09-21T16:39:44;6.43;;;2.80;;
62790;SDS011;48830;53.426;10.300;2022-09-21T16:42:12;6.93;;;2.42;;
62790;SDS011;48830;53.426;10.300;2022-09-21T16:44:37;6.78;;;2.00;;
62790;SDS011;48830;53.426;10.300;2022-09-21T16:47:18;4.85;;;2.08;;
62790;SDS011;48830;53.426;10.300;2022-09-21T16:49:58;3.42;;;1.85;;
62790;SDS011;48830;53.426;10.300;2022-09-21T16:52:27;4.70;;;1.95;;
62790;SDS011;48830;53.426;10.300;2022-09-21T16:54:54;3.95;;;1.77;;
62790;SDS011;48830;53.426;10.300;2022-09-21T16:57:21;5.32;;;1.90;;
62790;SDS011;48830;53.426;10.300;2022-09-21T16:59:47;3.20;;;1.80;;
62790;SDS011;48830;53.426;10.300;2022-09-21T17:02:14;3.83;;;2.05;;
62790;SDS011;48830;53.426;10.300;2022-09-21T17:04:41;4.38;;;1.67;;
62790;SDS011;48830;53.426;10.300;2022-09-21T17:07:13;4.10;;;1.70;;
62790;SDS011;48830;53.426;10.300;2022-09-21T17:09:41;4.35;;;1.90;;
62790;SDS011;48830;53.426;10.300;2022-09-21T17:12:11;3.13;;;1.50;;
62790;SDS011;48830;53.426;10.300;2022-09-21T17:14:38;5.07;;;1.70;;
62790;SDS011;48830;53.426;10.300;2022-09-21T17:17:06;3.58;;;1.80;;
62790;SDS011;48830;53.426;10.300;2022-09-21T17:19:37;6.00;;;2.05;;
62790;SDS011;48830;53.426;10.300;2022-09-21T17:22:04;4.75;;;2.00;;
62790;SDS011;48830;53.426;10.300;2022-09-21T17:24:31;4.40;;;1.88;;
62790;SDS011;48830;53.426;10.300;2022-09-21T17:26:57;3.90;;;1.88;;
62790;SDS011;48830;53.426;10.300;2022-09-21T17:29:23;4.65;;;1.90;;
62790;SDS011;48830;53.426;10.300;2022-09-21T17:31:54;2.30;;;1.50;;
62790;SDS011;48830;53.426;10.300;2022-09-21T17:34:22;9.88;;;2.22;;
62790;SDS011;48830;53.426;10.300;2022-09-21T17:36:49;3.55;;;1.70;;
62790;SDS011;48830;53.426;10.300;2022-09-21T17:39:16;4.85;;;1.90;;
62790;SDS011;48830;53.426;10.300;2022-09-21T17:41:45;6.70;;;2.13;;
62790;SDS011;48830;53.426;10.300;2022-09-21T17:47:17;10.70;;;3.90;;
62790;SDS011;48830;53.426;10.300;2022-09-21T17:49:47;6.40;;;3.10;;
62790;SDS011;48830;53.426;10.300;2022-09-21T17:52:17;6.35;;;2.78;;
62790;SDS011;48830;53.426;10.300;2022-09-21T17:55:03;5.47;;;3.10;;
62790;SDS011;48830;53.426;10.300;2022-09-21T18:02:38;4.60;;;2.50;;
62790;SDS011;48830;53.426;10.300;2022-09-21T18:05:12;6.50;;;2.45;;
62790;SDS011;48830;53.426;10.300;2022-09-21T18:07:43;8.90;;;3.00;;
62790;SDS011;48830;53.426;10.300;2022-09-21T18:10:10;6.28;;;2.60;;
62790;SDS011;48830;53.426;10.300;2022-09-21T18:12:50;5.90;;;2.70;;
62790;SDS011;48830;53.426;10.300;2022-09-21T18:21:08;6.65;;;2.53;;
62790;SDS011;48830;53.426;10.300;2022-09-21T18:26:14;6.05;;;2.67;;
62790;SDS011;48830;53.426;10.300;2022-09-21T18:41:48;7.07;;;2.50;;